Flight Track Log - Related Links

Times and Time Zones

All times are in EDT time to prevent confusion due to time zone crossing. See the SWA3126 flight status page for this flight to view local times or setup timezone preferences in your user account.

Time Position Orientation Groundspeed Altitude Reporting Facility
EDT Latitude Longitude Course Direction KTS MPH feet Rate Location/Type
Sat 01:26:26 PM 27.9167 -82.5667 196° South 200 230 3,600  Level Tampa TRACON
Sat 01:28:17 PM 27.9117 -82.6203 264° West 95 109 9,700 2,912 Climbing Jacksonville Center
Sat 01:29:17 PM 28.0014 -82.6106 North 199 229 11,900 2,750 Climbing Jacksonville Center
Sat 01:30:17 PM 28.1100 -82.6031 North 288 331 15,200 3,050 Climbing Jacksonville Center
Sat 01:31:17 PM 28.2206 -82.5933 North 346 398 18,000 2,400 Climbing Jacksonville Center
Sat 01:32:17 PM 28.3394 -82.5836 North 398 458 20,000 1,050 Climbing Jacksonville Center
Sat 01:33:17 PM 28.4606 -82.5856 359° North 417 480 20,100 1,300 Climbing Jacksonville Center
Sat 01:34:17 PM 28.5817 -82.5947 356° North 422 486 22,600 2,100 Climbing Jacksonville Center
Sat 01:35:17 PM 28.7067 -82.6061 355° North 442 509 24,300 2,850 Climbing Jacksonville Center
Sat 01:36:17 PM 28.8300 -82.6200 354° North 448 516 28,300 4,100 Climbing Jacksonville Center
Sat 01:37:17 PM 28.9386 -82.6339 354° North 421 484 32,500 2,850 Climbing Jacksonville Center
Sat 01:38:17 PM 29.0389 -82.6481 353° North 392 451 34,000 1,850 Climbing Jacksonville Center
Sat 01:39:17 PM 29.1411 -82.6597 354° North 374 430 36,200 1,650 Climbing Jacksonville Center
Sat 01:40:17 PM 29.2414 -82.6711 354° North 361 415 37,300 1,250 Climbing Jacksonville Center
Sat 01:41:17 PM 29.3456 -82.6711 360° North 361 415 38,700 850 Climbing Jacksonville Center
Sat 01:42:17 PM 29.4542 -82.6325 17° North 380 437 39,000 150 Climbing Jacksonville Center
Sat 01:43:17 PM 29.5689 -82.5942 16° North 399 459 39,000 400 Level Jacksonville Center
Sat 01:44:17 PM 29.6814 -82.5531 18° North 411 473 39,800 850 Climbing Jacksonville Center
Sat 01:45:17 PM 29.7942 -82.5144 17° North 417 480 40,700 600 Climbing Jacksonville Center
Sat 01:46:17 PM 29.8964 -82.4806 16° North 417 480 41,000 150 Climbing Jacksonville Center
Sat 01:47:17 PM 30.0089 -82.4417 17° North 417 480 41,000  Level Jacksonville Center
Sat 01:48:17 PM 30.1217 -82.4075 15° North 417 480 41,000  Level Jacksonville Center
Sat 01:49:17 PM 30.2300 -82.3686 17° North 417 480 41,000  Level Jacksonville Center
Sat 01:50:17 PM 30.3447 -82.3244 18° North 417 480 41,000  Level Jacksonville Center
Sat 01:51:17 PM 30.4572 -82.2853 17° North 417 480 41,000  Level Jacksonville Center
Sat 01:52:17 PM 30.5656 -82.2508 15° North 417 480 41,000  Level Jacksonville Center
Sat 01:53:17 PM 30.6761 -82.2139 16° North 417 480 41,000  Level Jacksonville Center
Sat 01:54:17 PM 30.7886 -82.1744 17° North 417 480 41,000  Level Jacksonville Center
Sat 01:55:17 PM 30.9011 -82.1347 17° North 417 480 41,000  Level Jacksonville Center
Sat 01:56:17 PM 31.0094 -82.0975 16° North 417 480 41,000  Level Jacksonville Center
Sat 01:57:17 PM 31.1219 -82.0553 18° North 417 480 41,000  Level Jacksonville Center
Sat 01:58:17 PM 31.2344 -82.0178 16° North 417 480 41,000  Level Jacksonville Center
Sat 01:59:17 PM 31.3489 -81.9756 17° North 417 480 41,000  Level Jacksonville Center
Sat 02:00:17 PM 31.4594 -81.9353 17° North 417 480 41,000  Level Jacksonville Center
Sat 02:01:17 PM 31.5842 -81.8928 16° North 422 486 41,000  Level Jacksonville Center
Sat 02:02:17 PM 31.6864 -81.8550 17° North 422 486 41,000  Level Jacksonville Center
Sat 02:03:17 PM 31.8069 -81.8119 17° North 422 486 41,000  Level Jacksonville Center
Sat 02:04:17 PM 31.9194 -81.7717 17° North 422 486 41,000  Level Jacksonville Center
Sat 02:05:17 PM 32.0214 -81.7361 16° North 415 478 41,000  Level Jacksonville Center
Sat 02:06:17 PM 32.1461 -81.6903 17° North 417 480 41,000  Level Jacksonville Center
Sat 02:07:17 PM 32.2586 -81.6494 17° North 419 482 41,000  Level Jacksonville Center
Sat 02:08:17 PM 32.3606 -81.6136 17° North 419 482 41,000  Level Jacksonville Center
Sat 02:09:17 PM 32.4833 -81.5675 18° North 419 482 41,000  Level Jacksonville Center
Sat 02:10:17 PM 32.5953 -81.5167 21° North 426 490 41,000  Level Jacksonville Center
Sat 02:11:17 PM 32.6906 -81.4411 34° Northeast 444 511 41,000  Level Jacksonville Center
Sat 02:12:17 PM 32.7981 -81.3628 31° Northeast 449 517 41,000  Level Jacksonville Center
Sat 02:13:17 PM 32.9078 -81.2867 30° Northeast 449 517 41,000  Level Jacksonville Center
Sat 02:14:17 PM 33.0175 -81.2081 31° Northeast 449 517 41,000  Level Jacksonville Center
Sat 02:15:17 PM 33.1269 -81.1267 32° Northeast 454 522 41,000  Level Jacksonville Center
Sat 02:16:17 PM 33.2469 -81.0397 31° Northeast 454 522 41,000  Level Jacksonville Center
Sat 02:17:17 PM 33.3561 -80.9603 31° Northeast 454 522 41,000  Level Jacksonville Center
Sat 02:18:17 PM 33.4678 -80.8783 31° Northeast 454 522 41,000  Level Jacksonville Center
Sat 02:19:17 PM 33.5769 -80.7986 31° Northeast 454 522 41,000  Level Jacksonville Center
Sat 02:20:17 PM 33.6861 -80.7186 31° Northeast 459 528 41,000  Level Jacksonville Center
Sat 02:21:17 PM 33.7953 -80.6358 32° Northeast 459 528 41,000  Level Jacksonville Center
Sat 02:22:17 PM 33.9025 -80.5556 32° Northeast 459 528 41,000  Level Jacksonville Center
Sat 02:23:17 PM 34.0114 -80.4775 31° Northeast 459 528 41,000  Level Jacksonville Center
Sat 02:24:17 PM 34.1206 -80.3967 32° Northeast 459 528 41,000  Level Jacksonville Center
Sat 02:25:17 PM 34.2272 -80.3133 33° Northeast 454 522 41,000  Level Jacksonville Center
Sat 02:26:17 PM 34.3361 -80.2322 32° Northeast 454 522 41,000  Level Jacksonville Center
Sat 02:28:39 PM 34.5769 -80.0464 32° Northeast 475 547 41,000  Level Washington Center
Sat 02:29:40 PM 34.6972 -79.9569 31° Northeast 489 563 41,000  Level Washington Center
Sat 02:30:41 PM 34.8086 -79.8744 31° Northeast 476 548 41,000  Level Washington Center
Sat 02:31:39 PM 34.9181 -79.7892 33° Northeast 471 542 41,000  Level Washington Center
Sat 02:32:40 PM 35.0294 -79.7061 31° Northeast 471 542 41,000  Level Washington Center
Sat 02:33:40 PM 35.1411 -79.6178 33° Northeast 471 542 41,000  Level Washington Center
Sat 02:34:41 PM 35.2469 -79.5111 39° Northeast 476 548 41,000  Level Washington Center
Sat 02:35:39 PM 35.3486 -79.3939 43° Northeast 488 562 41,000  Level Washington Center
Sat 02:36:40 PM 35.4397 -79.2861 44° Northeast 496 571 41,000  Level Washington Center
Sat 02:37:41 PM 35.5522 -79.1586 43° Northeast 496 571 41,000  Level Washington Center
Sat 02:38:41 PM 35.6558 -79.0406 43° Northeast 496 571 41,000  Level Washington Center
Sat 02:39:38 PM 35.7569 -78.9247 43° Northeast 491 565 41,000  Level Washington Center
Sat 02:40:39 PM 35.8475 -78.8183 44° Northeast 491 565 41,000  Level Washington Center
Sat 02:41:39 PM 35.9525 -78.7147 39° Northeast 486 559 41,000  Level Washington Center
Sat 02:42:41 PM 36.0614 -78.6214 35° Northeast 481 554 41,000  Level Washington Center
Sat 02:43:41 PM 36.1681 -78.5278 35° Northeast 468 539 41,000  Level Washington Center
Sat 02:44:39 PM 36.2747 -78.4311 36° Northeast 468 539 41,000  Level Washington Center
Sat 02:45:40 PM 36.3814 -78.3319 37° Northeast 468 539 41,000  Level Washington Center
Sat 02:46:41 PM 36.4858 -78.2372 36° Northeast 468 539 41,000  Level Washington Center
Sat 02:47:39 PM 36.5922 -78.1400 36° Northeast 468 539 41,000  Level Washington Center
Sat 02:48:39 PM 36.6964 -78.0400 38° Northeast 468 539 41,000  Level Washington Center
Sat 02:49:40 PM 36.8028 -77.9447 36° Northeast 468 539 41,000  Level Washington Center
Sat 02:50:40 PM 36.9089 -77.8439 37° Northeast 468 539 41,000  Level Washington Center
Sat 02:51:41 PM 37.0194 -77.7406 37° Northeast 474 545 41,000  Level Washington Center
Sat 02:52:41 PM 37.1275 -77.6419 36° Northeast 474 545 41,000  Level Washington Center
Sat 02:53:39 PM 37.2356 -77.5406 37° Northeast 474 545 41,000  Level Washington Center
Sat 02:54:40 PM 37.3456 -77.4389 36° Northeast 479 551 41,000  Level Washington Center
Sat 02:55:41 PM 37.4536 -77.3342 38° Northeast 485 558 41,000  Level Washington Center
Sat 02:56:39 PM 37.5656 -77.2319 36° Northeast 485 558 41,000  Level Washington Center
Sat 02:57:40 PM 37.6756 -77.1242 38° Northeast 485 558 41,000  Level Washington Center
Sat 02:58:40 PM 37.7831 -77.0211 37° Northeast 485 558 41,000  Level Washington Center
Sat 02:59:41 PM 37.8947 -76.9153 37° Northeast 485 558 41,000  Level Washington Center
Sat 03:00:39 PM 38.0003 -76.8092 38° Northeast 485 558 41,000  Level Washington Center
Sat 03:01:40 PM 38.1097 -76.7053 37° Northeast 485 558 41,000  Level Washington Center
Sat 03:02:41 PM 38.2189 -76.6014 37° Northeast 485 558 41,000  Level Washington Center
Sat 03:03:39 PM 38.3367 -76.4864 37° Northeast 485 558 41,000  Level Washington Center
Sat 03:04:39 PM 38.4439 -76.3817 37° Northeast 485 558 41,000  Level Washington Center
Sat 03:05:40 PM 38.5528 -76.2739 38° Northeast 485 558 41,000  Level Washington Center
Sat 03:06:41 PM 38.6617 -76.1686 37° Northeast 485 558 41,000  Level Washington Center
Sat 03:07:41 PM 38.7644 -76.0708 37° Northeast 492 566 41,000  Level Washington Center
Sat 03:08:39 PM 38.8731 -75.9622 38° Northeast 492 566 41,000  Level Washington Center
Sat 03:09:40 PM 38.9819 -75.8533 38° Northeast 486 559 41,000  Level Washington Center
Sat 03:10:40 PM 39.0903 -75.7467 37° Northeast 486 559 41,000 -99 Level Washington Center
Sat 03:11:41 PM 39.2008 -75.6372 37° Northeast 486 559 40,800 -605 Descending Washington Center
Sat 03:12:39 PM 39.3092 -75.5244 39° Northeast 491 565 39,800 -966 Descending Washington Center
Sat 03:13:39 PM 39.4175 -75.4142 38° Northeast 491 565 38,900 -893 Descending Washington Center
Sat 03:14:40 PM 39.5278 -75.3036 38° Northeast 491 565 38,000 -912 Descending Washington Center
Sat 03:16:30 PM 39.7269 -75.0994 38° Northeast 509 586 36,300 -953 Descending Boston Center
Sat 03:17:30 PM 39.8414 -74.9831 38° Northeast 509 586 35,300 -614 Descending Boston Center
Sat 03:18:37 PM 39.9683 -74.8339 42° Northeast 507 583 35,000 -140 Descending New York Center
Sat 03:19:39 PM 40.0681 -74.6878 48° Northeast 513 590 35,000  Level New York Center
Sat 03:20:40 PM 40.1644 -74.5500 48° Northeast 511 588 35,000 -146 Level New York Center
Sat 03:21:42 PM 40.2692 -74.4239 43° Northeast 513 590 34,700 -629 Descending New York Center
Sat 03:22:44 PM 40.3775 -74.3072 39° Northeast 508 585 33,700 -919 Descending New York Center
Sat 03:23:46 PM 40.4878 -74.1892 39° Northeast 514 592 32,800 -1,887 Descending New York Center
Sat 03:24:48 PM 40.5972 -74.0714 39° Northeast 511 588 29,800 -3,194 Descending New York Center
Sat 03:25:50 PM 40.7072 -73.9531 39° Northeast 514 592 26,200 -2,806 Descending New York Center
Sat 03:26:52 PM 40.8297 -73.8167 40° Northeast 497 572 24,000 -1,065 Descending New York Center
Sat 03:27:54 PM 40.9333 -73.6906 43° Northeast 501 577 24,000 -330 Level New York Center
Sat 03:28:41 PM 41.0161 -73.5889 43° Northeast 504 580 23,400 -944 Descending Boston Center
Sat 03:29:42 PM 41.1172 -73.4733 41° Northeast 492 566 22,300 -1,041 Descending Boston Center
Sat 03:30:42 PM 41.2361 -73.4608 North 432 497 21,300 -984 Descending Boston Center
Sat 03:31:44 PM 41.3500 -73.4686 357° North 416 479 20,300 -960 Descending Boston Center
Sat 03:32:47 PM 41.4642 -73.4769 357° North 414 476 19,300 -927 Descending Boston Center
Sat 03:33:47 PM 41.5856 -73.4917 355° North 404 465 18,400 -1,537 Descending Boston Center
Sat 03:34:48 PM 41.6736 -73.5717 326° Northwest 360 414 16,200 -1,736 Descending Boston Center
Sat 03:35:48 PM 41.7783 -73.5775 358° North 375 432 14,900 -1,279 Descending Boston Center
Sat 03:36:50 PM 41.8794 -73.6008 350° North 370 426 13,600 -1,223 Descending Boston Center
Sat 03:37:31 PM 41.9464 -73.6150 351° North 359 413 12,800 -1,100 Descending Boston Center
Sat 03:37:50 PM 41.9783 -73.6228 350° North 364 419 12,500 -1,403 Descending Boston Center
Sat 03:38:48 PM 42.0742 -73.6431 351° North 350 403 11,000 -750 Descending Boston Center
Sat 03:39:50 PM 42.1667 -73.6653 350° North 338 389 11,000 -246 Level Boston Center
Sat 03:40:50 PM 42.2456 -73.6800 352° North 279 321 10,500 -850 Descending Boston Center
Sat 03:41:57 PM 42.3300 -73.6994 350° North 258 297 9,200 -1,181 Descending Boston Center
Sat 03:42:57 PM 42.4028 -73.6889 North 261 300 8,000 -1,500 Descending Boston Center
Sat 03:43:57 PM 42.4711 -73.6800 North 248 285 6,200 -1,790 Descending Boston Center
Sat 03:45:01 PM 42.5419 -73.6803 360° North 249 287 4,300 -1,597 Descending Boston Center
Sat 03:46:01 PM 42.6086 -73.6794 North 240 276 2,900 -744 Descending Boston Center
Sat 03:47:02 PM 42.6672 -73.6758 North 203 234 2,800 -347 Descending Boston Center
Sat 03:48:02 PM 42.7228 -73.6769 359° North 183 211 2,200 -650 Descending Boston Center
Sat 03:49:02 PM 42.7506 -73.7125 317° Northwest 132 152 1,500 -694 Descending Boston Center
Sat 03:50:03 PM 42.7486 -73.7586 267° West 116 133 800 -689 Descending Boston Center
Sat 03:52:00 PM 42.7333 -73.8000 257° West  Level FlightAware Approximate
Sat 03:59:00 PM 42.7491 -73.8020 257° West  Level Estimated
Sat 04:00:00 PM 42.7491 -73.8020 257° West  Level Estimated

Login

Don't have an account? Register now (free) for customized features, flight alerts, and more!